createdAt,value
2019-02-28T00:04:35.044Z,59.97
2019-02-28T00:10:41.009Z,60.30
2019-02-28T00:16:46.888Z,60.56
2019-02-28T00:22:52.748Z,60.57
2019-02-28T00:29:00.413Z,60.59
2019-02-28T00:35:06.463Z,60.59
2019-02-28T00:41:12.661Z,60.84
2019-02-28T00:47:18.355Z,60.77
2019-02-28T00:53:24.115Z,60.74
2019-02-28T00:59:31.720Z,60.53
2019-02-28T01:05:37.524Z,60.59
2019-02-28T01:11:44.785Z,60.61
2019-02-28T01:17:51.448Z,60.81
2019-02-28T01:24:00.648Z,60.92
2019-02-28T01:30:06.698Z,60.91
2019-02-28T01:36:15.510Z,60.98
2019-02-28T01:42:19.944Z,61.01
2019-02-28T01:48:26.621Z,61.40
2019-02-28T01:54:32.319Z,61.60
2019-02-28T02:00:38.188Z,62.00
2019-02-28T02:06:43.897Z,62.24
2019-02-28T02:12:50.030Z,62.25
2019-02-28T02:18:56.225Z,62.38
2019-02-28T02:25:02.847Z,62.34
2019-02-28T02:31:09.377Z,62.45
2019-02-28T02:37:15.307Z,62.66
2019-02-28T02:43:21.848Z,62.78
2019-02-28T02:49:28.496Z,62.97
2019-02-28T02:55:34.242Z,63.04
2019-02-28T03:01:39.948Z,63.28
2019-02-28T03:07:45.956Z,63.66
2019-02-28T03:13:51.859Z,64.10
2019-02-28T03:19:57.791Z,64.23
2019-02-28T03:26:07.008Z,64.33
2019-02-28T03:32:11.444Z,64.63
2019-02-28T03:38:17.189Z,64.67
2019-02-28T03:44:22.973Z,65.05
2019-02-28T03:50:28.698Z,65.26
2019-02-28T03:56:34.372Z,65.36
2019-02-28T04:02:40.197Z,65.57
2019-02-28T04:08:46.288Z,65.75
2019-02-28T04:14:52.027Z,65.73
2019-02-28T04:20:57.830Z,65.94
2019-02-28T04:27:06.822Z,66.25
2019-02-28T04:33:11.095Z,66.57
2019-02-28T04:39:17.043Z,66.83
2019-02-28T04:45:23.283Z,67.06
2019-02-28T04:51:30.399Z,67.12
2019-02-28T04:57:36.090Z,67.47
2019-02-28T05:03:41.892Z,67.68
2019-02-28T05:09:48.255Z,67.90
2019-02-28T05:15:54.790Z,67.75
2019-02-28T05:22:00.544Z,67.85
2019-02-28T05:28:07.467Z,68.07
2019-02-28T05:34:15.951Z,68.53
2019-02-28T05:40:20.967Z,68.61
2019-02-28T05:46:26.927Z,68.49
2019-02-28T05:52:33.706Z,68.74
2019-02-28T05:58:40.365Z,69.15
2019-02-28T06:04:46.258Z,69.30
2019-02-28T06:10:56.041Z,69.39
2019-02-28T06:17:00.399Z,70.05
2019-02-28T06:23:06.317Z,70.16
2019-02-28T06:29:13.541Z,69.99
2019-02-28T06:35:21.354Z,69.65
2019-02-28T06:41:27.373Z,69.55
2019-02-28T06:47:33.276Z,69.78
2019-02-28T06:53:41.131Z,70.09
2019-02-28T06:59:46.889Z,70.24
2019-02-28T07:05:52.834Z,70.22
2019-02-28T07:11:58.636Z,70.08
2019-02-28T07:18:04.497Z,69.87
2019-02-28T07:24:10.551Z,69.66
2019-02-28T07:30:18.595Z,69.54
2019-02-28T07:36:24.544Z,69.64
2019-02-28T07:42:30.338Z,69.57
2019-02-28T07:48:36.273Z,69.50
2019-02-28T07:54:41.978Z,69.11
2019-02-28T08:00:48.518Z,68.61
2019-02-28T08:06:55.664Z,68.03
2019-02-28T08:13:03.056Z,67.58
2019-02-28T08:19:09.063Z,67.08
2019-02-28T08:25:15.206Z,66.48
2019-02-28T08:31:21.859Z,65.83
2019-02-28T08:37:27.697Z,65.29
2019-02-28T08:43:33.420Z,64.75
2019-02-28T08:49:44.678Z,64.15
2019-02-28T08:55:46.886Z,63.58
2019-02-28T09:01:52.883Z,63.11
2019-02-28T09:07:59.068Z,62.54
2019-02-28T09:14:04.812Z,62.15
2019-02-28T09:20:11.777Z,61.65
2019-02-28T09:26:17.579Z,61.24
2019-02-28T09:32:23.285Z,60.95
2019-02-28T09:38:29.399Z,60.54
2019-02-28T09:44:35.616Z,60.16
2019-02-28T09:50:41.541Z,59.68
2019-02-28T09:56:47.353Z,58.96
2019-02-28T10:02:53.742Z,58.81
2019-02-28T10:09:00.050Z,58.49
2019-02-28T10:15:07.482Z,57.91
2019-02-28T10:21:13.626Z,57.58
2019-02-28T10:27:19.433Z,57.21
2019-02-28T10:33:25.322Z,56.57
2019-02-28T10:39:31.063Z,56.22
2019-02-28T10:45:41.230Z,55.59
2019-02-28T10:51:49.535Z,54.69
2019-02-28T10:57:52.617Z,54.36
2019-02-28T11:04:00.209Z,53.84
2019-02-28T11:10:07.096Z,53.39
2019-02-28T11:16:13.211Z,53.08
2019-02-28T11:22:19.739Z,52.83
2019-02-28T11:28:28.252Z,52.50
2019-02-28T11:34:33.118Z,52.38
2019-02-28T11:40:43.388Z,52.02
2019-02-28T11:46:49.675Z,51.79
2019-02-28T11:52:55.624Z,51.68
2019-02-28T11:59:01.658Z,51.64
2019-02-28T12:05:08.093Z,51.20
2019-02-28T12:11:14.151Z,51.25
2019-02-28T12:17:20.057Z,51.37
2019-02-28T12:23:25.850Z,51.37
2019-02-28T12:29:31.881Z,51.61
2019-02-28T12:35:40.461Z,51.54
2019-02-28T12:41:47.899Z,51.58
2019-02-28T12:47:53.748Z,51.89
2019-02-28T12:53:59.955Z,51.98
2019-02-28T13:00:08.106Z,52.19
2019-02-28T13:06:14.101Z,51.94
2019-02-28T13:12:19.812Z,52.00
2019-02-28T13:18:25.726Z,51.64
2019-02-28T13:24:31.488Z,50.93
2019-02-28T13:30:39.982Z,50.16
2019-02-28T13:36:45.643Z,50.19
2019-02-28T13:42:51.557Z,50.30
2019-02-28T13:48:57.730Z,50.21
2019-02-28T13:55:06.188Z,50.57
2019-02-28T14:01:13.182Z,53.61
2019-02-28T14:07:19.082Z,54.79
2019-02-28T14:13:24.963Z,55.78
2019-02-28T14:19:30.743Z,57.10
2019-02-28T14:25:39.784Z,58.38
2019-02-28T14:31:44.123Z,58.50
2019-02-28T14:37:51.808Z,58.89
2019-02-28T14:43:57.613Z,58.96
2019-02-28T14:50:03.440Z,59.02
2019-02-28T14:56:09.330Z,58.82
2019-02-28T15:02:15.631Z,58.60
2019-02-28T15:08:21.563Z,58.58
2019-02-28T15:14:27.361Z,58.46
2019-02-28T15:20:33.358Z,58.59
2019-02-28T15:26:39.114Z,58.40
2019-02-28T15:32:45.163Z,58.42
2019-02-28T15:38:51.027Z,58.18
2019-02-28T15:44:56.962Z,58.14
2019-02-28T15:51:03.531Z,57.85
2019-02-28T15:57:09.571Z,57.79
2019-02-28T16:03:16.784Z,57.89
2019-02-28T16:09:23.554Z,57.95
2019-02-28T16:15:29.711Z,57.93
2019-02-28T16:21:38.168Z,58.25
2019-02-28T16:27:42.899Z,58.43
2019-02-28T16:33:48.667Z,58.85
2019-02-28T16:39:54.543Z,59.05
2019-02-28T16:46:00.362Z,59.25
2019-02-28T16:52:06.992Z,59.44
2019-02-28T16:58:13.326Z,59.44
2019-02-28T17:04:19.108Z,59.37
2019-02-28T17:10:30.495Z,59.33
2019-02-28T17:16:48.874Z,59.26
2019-02-28T17:22:54.918Z,59.22
2019-02-28T17:29:09.094Z,59.18
2019-02-28T17:35:15.589Z,59.11
2019-02-28T17:41:21.660Z,58.97
2019-02-28T17:48:25.052Z,58.95
2019-02-28T17:55:17.278Z,59.04
2019-02-28T18:01:53.527Z,59.31
2019-02-28T18:08:53.175Z,60.05
2019-02-28T18:15:24.427Z,60.49
2019-02-28T18:22:06.912Z,60.88
2019-02-28T18:29:17.437Z,61.12
2019-02-28T18:35:23.277Z,61.30
2019-02-28T18:41:29.388Z,61.68
2019-02-28T18:47:35.975Z,61.88
2019-02-28T18:53:42.895Z,61.99
2019-02-28T18:59:48.803Z,62.30
2019-02-28T19:05:54.560Z,62.39
2019-02-28T19:12:02.195Z,62.54
2019-02-28T19:18:07.937Z,62.69
2019-02-28T19:24:16.351Z,62.77
2019-02-28T19:30:22.605Z,62.79
2019-02-28T19:36:28.672Z,63.05
2019-02-28T19:42:34.559Z,63.06
2019-02-28T19:48:40.566Z,62.98
2019-02-28T19:54:46.582Z,62.93
2019-02-28T20:00:52.886Z,62.98
2019-02-28T20:06:58.894Z,63.23
2019-02-28T20:13:06.203Z,63.66
2019-02-28T20:19:12.017Z,63.96
2019-02-28T20:25:18.539Z,64.49
2019-02-28T20:31:24.880Z,64.57
2019-02-28T20:37:31.225Z,64.87
2019-02-28T20:43:37.314Z,64.88
2019-02-28T20:49:51.203Z,64.80
2019-02-28T20:55:57.575Z,64.87
2019-02-28T21:02:03.562Z,64.86
2019-02-28T21:08:09.418Z,65.02
2019-02-28T21:14:15.314Z,64.87
2019-02-28T21:20:21.178Z,65.07
2019-02-28T21:26:27.044Z,65.57
2019-02-28T21:32:32.905Z,67.21
2019-02-28T21:38:40.220Z,68.29
2019-02-28T21:44:46.268Z,69.01
2019-02-28T21:50:52.146Z,69.55
2019-02-28T21:56:57.959Z,69.77
2019-02-28T22:03:04.893Z,70.10
2019-02-28T22:09:12.990Z,69.93
2019-02-28T22:15:19.702Z,70.13
2019-02-28T22:21:25.811Z,70.27
2019-02-28T22:27:32.026Z,70.51
2019-02-28T22:33:43.654Z,70.59
2019-02-28T22:39:51.004Z,70.57
2019-02-28T22:45:57.499Z,70.42
2019-02-28T22:52:03.748Z,70.36
2019-02-28T22:58:13.313Z,70.15
2019-02-28T23:04:20.186Z,70.09
2019-02-28T23:10:26.935Z,70.04
2019-02-28T23:16:34.751Z,69.97
2019-02-28T23:22:40.877Z,69.93
2019-02-28T23:29:09.269Z,69.81
2019-02-28T23:35:40.842Z,69.78
2019-02-28T23:41:46.949Z,69.67
2019-02-28T23:47:53.045Z,69.70
2019-02-28T23:53:59.036Z,69.82
